createdAt,value
2019-03-31T00:01:11.176Z,14.77
2019-03-31T00:03:38.255Z,15.77
2019-03-31T00:06:07.333Z,15.03
2019-03-31T00:08:34.522Z,16.63
2019-03-31T00:11:01.997Z,16.60
2019-03-31T00:13:29.076Z,18.07
2019-03-31T00:15:56.137Z,15.80
2019-03-31T00:18:23.295Z,17.03
2019-03-31T00:20:50.329Z,18.90
2019-03-31T00:23:17.447Z,16.23
2019-03-31T00:25:48.458Z,17.00
2019-03-31T00:28:16.558Z,17.07
2019-03-31T00:30:44.580Z,18.87
2019-03-31T00:33:11.715Z,17.40
2019-03-31T00:35:39.107Z,21.60
2019-03-31T00:38:06.186Z,18.07
2019-03-31T00:40:33.214Z,18.50
2019-03-31T00:43:00.267Z,15.77
2019-03-31T00:45:27.283Z,17.50
2019-03-31T00:48:00.620Z,14.43
2019-03-31T00:50:28.900Z,15.23
2019-03-31T00:52:57.979Z,17.17
2019-03-31T00:55:25.050Z,17.73
2019-03-31T00:57:52.078Z,18.90
2019-03-31T01:00:44.716Z,17.37
2019-03-31T01:03:11.950Z,19.43
2019-03-31T01:05:40.837Z,15.97
2019-03-31T01:08:08.298Z,19.10
2019-03-31T01:10:35.720Z,15.10
2019-03-31T01:13:03.406Z,17.73
2019-03-31T01:15:31.213Z,15.93
2019-03-31T01:18:01.912Z,19.13
2019-03-31T01:20:28.952Z,17.67
2019-03-31T01:22:56.184Z,14.70
2019-03-31T01:25:23.310Z,17.33
2019-03-31T01:27:51.539Z,14.27
2019-03-31T01:30:19.674Z,16.00
2019-03-31T01:32:46.734Z,16.17
2019-03-31T01:35:14.056Z,20.23
2019-03-31T01:37:41.230Z,17.13
2019-03-31T01:40:08.409Z,20.17
2019-03-31T01:42:35.779Z,17.33
2019-03-31T01:45:03.403Z,18.27
2019-03-31T01:47:30.515Z,16.70
2019-03-31T01:49:57.670Z,16.70
2019-03-31T01:52:25.127Z,17.10
2019-03-31T01:54:52.157Z,21.27
2019-03-31T01:57:19.260Z,17.57
2019-03-31T01:59:53.280Z,17.03
2019-03-31T02:02:26.274Z,16.80
2019-03-31T02:04:53.420Z,17.57
2019-03-31T02:07:20.734Z,19.40
2019-03-31T02:09:48.577Z,16.73
2019-03-31T02:12:15.679Z,13.93
2019-03-31T02:14:43.012Z,16.13
2019-03-31T02:17:10.072Z,18.13
2019-03-31T02:19:37.204Z,18.50
2019-03-31T02:22:04.282Z,20.97
2019-03-31T02:24:31.381Z,20.40
2019-03-31T02:26:58.899Z,18.33
2019-03-31T02:29:25.986Z,17.53
2019-03-31T02:31:53.731Z,17.23
2019-03-31T02:34:21.022Z,19.93
2019-03-31T02:36:48.449Z,16.10
2019-03-31T02:39:15.472Z,21.70
2019-03-31T02:41:43.599Z,16.40
2019-03-31T02:44:10.614Z,18.93
2019-03-31T02:46:37.792Z,16.33
2019-03-31T02:49:05.083Z,17.87
2019-03-31T02:51:32.505Z,19.73
2019-03-31T02:53:59.599Z,19.20
2019-03-31T02:56:28.144Z,17.37
2019-03-31T02:58:57.219Z,20.07
2019-03-31T03:01:25.531Z,19.43
2019-03-31T03:03:52.774Z,19.13
2019-03-31T03:06:20.573Z,19.73
2019-03-31T03:08:49.068Z,21.13
2019-03-31T03:11:17.354Z,17.77
2019-03-31T03:13:46.799Z,19.53
2019-03-31T03:16:20.897Z,23.40
2019-03-31T03:18:48.500Z,24.00
2019-03-31T03:21:15.878Z,20.40
2019-03-31T03:23:43.067Z,18.93
2019-03-31T03:26:10.264Z,18.93
2019-03-31T03:28:37.286Z,19.77
2019-03-31T03:31:04.872Z,16.63
2019-03-31T03:33:32.343Z,19.40
2019-03-31T03:35:59.594Z,19.67
2019-03-31T03:38:27.697Z,18.90
2019-03-31T03:40:54.732Z,19.13
2019-03-31T03:43:23.419Z,20.90
2019-03-31T03:45:50.463Z,23.20
2019-03-31T03:48:23.646Z,20.90
2019-03-31T03:50:51.125Z,20.27
2019-03-31T03:53:18.390Z,18.00
2019-03-31T03:55:45.423Z,18.83
2019-03-31T03:58:12.466Z,19.30
2019-03-31T04:00:40.868Z,20.87
2019-03-31T04:03:08.140Z,18.13
2019-03-31T04:05:35.245Z,20.03
2019-03-31T04:08:02.314Z,17.73
2019-03-31T04:11:12.993Z,19.10
2019-03-31T04:13:40.655Z,23.23
2019-03-31T04:16:07.873Z,18.80
2019-03-31T04:18:34.920Z,20.80
2019-03-31T04:21:03.362Z,19.63
2019-03-31T04:23:30.459Z,18.97
2019-03-31T04:25:58.221Z,22.13
2019-03-31T04:28:25.257Z,19.93
2019-03-31T04:30:52.342Z,19.03
2019-03-31T04:33:20.239Z,21.53
2019-03-31T04:35:47.351Z,21.83
2019-03-31T04:38:14.398Z,21.63
2019-03-31T04:40:42.177Z,20.10
2019-03-31T04:43:09.290Z,18.87
2019-03-31T04:45:36.413Z,17.90
2019-03-31T04:48:06.205Z,17.17
2019-03-31T04:50:33.613Z,19.87
2019-03-31T04:53:01.003Z,18.87
2019-03-31T04:55:28.214Z,17.40
2019-03-31T04:57:55.711Z,20.53
2019-03-31T05:00:22.932Z,20.43
2019-03-31T05:02:52.311Z,23.33
2019-03-31T05:05:19.428Z,19.37
2019-03-31T05:07:46.519Z,20.33
2019-03-31T05:10:16.440Z,19.13
2019-03-31T05:12:44.715Z,24.13
2019-03-31T05:15:11.927Z,19.10
2019-03-31T05:17:38.986Z,22.90
2019-03-31T05:20:06.227Z,25.77
2019-03-31T05:22:33.724Z,22.53
2019-03-31T05:25:00.965Z,23.17
2019-03-31T05:27:28.181Z,20.03
2019-03-31T05:29:55.294Z,22.77
2019-03-31T05:32:22.807Z,24.20
2019-03-31T05:34:49.907Z,21.27
2019-03-31T05:37:19.477Z,24.70
2019-03-31T05:39:46.699Z,20.93
2019-03-31T05:42:14.075Z,21.23
2019-03-31T05:44:41.190Z,20.70
2019-03-31T05:47:08.438Z,21.60
2019-03-31T05:49:36.447Z,21.60
2019-03-31T05:52:03.648Z,20.77
2019-03-31T05:54:30.733Z,23.23
2019-03-31T05:56:59.373Z,22.03
2019-03-31T05:59:26.465Z,19.30
2019-03-31T06:01:53.561Z,25.80
2019-03-31T06:04:32.561Z,22.17
2019-03-31T06:06:50.154Z,22.30
2019-03-31T06:09:17.222Z,19.83
2019-03-31T06:11:44.375Z,23.30
2019-03-31T06:14:11.496Z,23.07
2019-03-31T06:16:39.731Z,18.10
2019-03-31T06:19:07.522Z,20.70
2019-03-31T06:21:34.595Z,22.37
2019-03-31T06:24:01.695Z,18.23
2019-03-31T06:26:29.253Z,19.33
2019-03-31T06:28:56.320Z,17.83
2019-03-31T06:31:23.628Z,19.37
2019-03-31T06:33:50.759Z,16.37
2019-03-31T06:36:18.117Z,16.30
2019-03-31T06:38:46.364Z,18.13
2019-03-31T06:41:13.518Z,18.20
2019-03-31T06:43:41.487Z,21.93
2019-03-31T06:46:08.598Z,18.33
2019-03-31T06:48:37.494Z,17.97
2019-03-31T06:51:04.588Z,15.83
2019-03-31T06:53:31.753Z,18.37
2019-03-31T06:55:58.843Z,20.70
2019-03-31T06:58:26.305Z,19.07
2019-03-31T07:00:53.624Z,18.27
2019-03-31T07:03:21.629Z,18.57
2019-03-31T07:05:49.691Z,18.07
2019-03-31T07:08:18.319Z,16.30
2019-03-31T07:10:45.393Z,19.87
2019-03-31T07:13:13.075Z,18.37
2019-03-31T07:15:40.930Z,15.30
2019-03-31T07:18:08.007Z,18.00
2019-03-31T07:20:35.100Z,17.20
2019-03-31T07:23:03.023Z,18.03
2019-03-31T07:25:30.485Z,18.10
2019-03-31T07:27:57.833Z,17.63
2019-03-31T07:30:25.057Z,15.50
2019-03-31T07:32:52.124Z,15.73
2019-03-31T07:35:19.903Z,17.97
2019-03-31T07:37:47.918Z,16.50
2019-03-31T07:40:17.246Z,14.43
2019-03-31T07:42:44.641Z,15.37
2019-03-31T07:45:13.316Z,17.47
2019-03-31T07:47:40.400Z,16.67
2019-03-31T07:50:08.321Z,15.47
2019-03-31T07:52:36.129Z,13.73
2019-03-31T07:55:03.885Z,16.70
2019-03-31T07:57:30.954Z,14.63
2019-03-31T07:59:59.271Z,18.33
2019-03-31T08:02:26.702Z,17.03
2019-03-31T08:04:54.940Z,14.87
2019-03-31T08:07:21.994Z,18.60
2019-03-31T08:09:49.259Z,17.17
2019-03-31T08:12:16.450Z,17.60
2019-03-31T08:14:43.900Z,22.03
2019-03-31T08:17:11.802Z,21.97
2019-03-31T08:19:38.873Z,23.87
2019-03-31T08:22:06.159Z,23.77
2019-03-31T08:24:43.607Z,18.53
2019-03-31T08:27:12.259Z,18.60
2019-03-31T08:29:39.471Z,18.33
2019-03-31T08:32:06.996Z,18.17
2019-03-31T08:34:34.211Z,16.23
2019-03-31T08:37:03.753Z,18.27
2019-03-31T08:39:31.223Z,16.80
2019-03-31T08:41:58.673Z,16.07
2019-03-31T08:44:26.515Z,17.77
2019-03-31T08:46:53.909Z,18.40
2019-03-31T08:49:21.052Z,18.30
2019-03-31T08:51:48.669Z,20.90
2019-03-31T08:54:16.095Z,24.27
2019-03-31T08:56:43.957Z,19.90
2019-03-31T08:59:11.730Z,22.37
2019-03-31T09:01:38.941Z,20.87
2019-03-31T09:04:06.686Z,19.63
2019-03-31T09:06:34.193Z,20.70
2019-03-31T09:09:06.724Z,17.23
2019-03-31T09:11:33.950Z,18.57
2019-03-31T09:14:01.821Z,19.20
2019-03-31T09:16:29.164Z,22.23
2019-03-31T09:18:56.475Z,24.57
2019-03-31T09:21:23.808Z,24.00
2019-03-31T09:23:50.955Z,24.57
2019-03-31T09:26:18.066Z,22.60
2019-03-31T09:28:45.205Z,26.10
2019-03-31T09:31:13.633Z,25.47
2019-03-31T09:33:41.023Z,23.63
2019-03-31T09:36:15.972Z,26.47
2019-03-31T09:38:38.352Z,27.90
2019-03-31T09:41:07.453Z,27.50
2019-03-31T09:43:38.968Z,29.97
2019-03-31T09:46:10.678Z,31.87
2019-03-31T09:48:38.867Z,30.10
2019-03-31T09:51:17.702Z,36.77
2019-03-31T09:53:45.129Z,32.90
2019-03-31T09:56:15.317Z,28.53
2019-03-31T09:58:43.015Z,29.63
2019-03-31T10:01:10.396Z,32.40
2019-03-31T10:03:38.669Z,31.37
2019-03-31T10:06:11.008Z,33.17
2019-03-31T10:08:39.538Z,33.20
2019-03-31T10:11:06.915Z,35.03
2019-03-31T10:13:36.589Z,41.87
2019-03-31T10:16:04.300Z,38.33
2019-03-31T10:18:32.934Z,35.60
2019-03-31T10:21:01.214Z,36.67
2019-03-31T10:23:30.993Z,35.13
2019-03-31T10:25:58.241Z,38.33
2019-03-31T10:28:25.552Z,36.37
2019-03-31T10:30:54.341Z,42.27
2019-03-31T10:33:31.915Z,38.97
2019-03-31T10:36:12.877Z,39.73
2019-03-31T10:38:50.095Z,38.80
2019-03-31T10:41:30.838Z,34.73
2019-03-31T10:44:05.380Z,37.13
2019-03-31T10:46:42.022Z,45.07
2019-03-31T10:49:19.655Z,40.20
2019-03-31T10:52:08.472Z,39.80
2019-03-31T10:54:53.771Z,42.20
2019-03-31T10:57:38.038Z,38.33
2019-03-31T11:00:15.360Z,36.00
2019-03-31T11:02:55.785Z,42.97
2019-03-31T11:05:22.964Z,40.43
2019-03-31T11:07:50.263Z,39.40
2019-03-31T11:10:19.051Z,39.47
2019-03-31T11:12:50.724Z,41.63
2019-03-31T11:15:17.394Z,37.57
2019-03-31T11:17:44.502Z,40.97
2019-03-31T11:20:13.648Z,36.33
2019-03-31T11:22:45.913Z,41.53
2019-03-31T11:25:20.662Z,43.03
2019-03-31T11:27:47.539Z,47.23
2019-03-31T11:30:14.952Z,41.57
2019-03-31T11:32:42.059Z,41.47
2019-03-31T11:35:09.320Z,38.07
2019-03-31T11:37:38.620Z,44.97
2019-03-31T11:40:06.288Z,41.50
2019-03-31T11:42:33.873Z,42.40
2019-03-31T11:45:02.306Z,38.63
2019-03-31T11:47:30.491Z,43.57
2019-03-31T11:49:57.657Z,43.30
2019-03-31T11:52:26.041Z,36.73
2019-03-31T11:54:55.344Z,41.43
2019-03-31T11:57:23.650Z,43.50
2019-03-31T11:59:50.956Z,45.63
2019-03-31T12:02:26.819Z,37.73
2019-03-31T12:04:49.225Z,37.13
2019-03-31T12:07:27.335Z,40.87
2019-03-31T12:09:46.522Z,37.93
2019-03-31T12:12:14.164Z,35.50
2019-03-31T12:14:43.073Z,36.63
2019-03-31T12:17:10.173Z,37.53
2019-03-31T12:19:37.338Z,25.83
2019-03-31T12:22:04.594Z,29.67
2019-03-31T12:24:31.809Z,26.90
2019-03-31T12:26:59.047Z,26.47
2019-03-31T12:29:26.217Z,28.53
2019-03-31T12:31:53.649Z,24.43
2019-03-31T12:34:20.800Z,28.97
2019-03-31T12:36:48.122Z,27.97
2019-03-31T12:39:16.274Z,28.50
2019-03-31T12:41:43.856Z,33.93
2019-03-31T12:44:11.956Z,33.13
2019-03-31T12:46:41.507Z,34.10
2019-03-31T12:49:09.158Z,32.30
2019-03-31T12:51:36.828Z,39.03
2019-03-31T12:54:08.862Z,33.67
2019-03-31T12:56:36.116Z,34.90
2019-03-31T12:59:03.363Z,33.80
2019-03-31T13:01:33.496Z,38.37
2019-03-31T13:04:12.171Z,36.57
2019-03-31T13:06:39.261Z,32.97
2019-03-31T13:09:11.886Z,31.80
2019-03-31T13:11:42.851Z,32.90
2019-03-31T13:14:10.080Z,34.00
2019-03-31T13:16:37.929Z,32.63
2019-03-31T13:19:08.807Z,32.50
2019-03-31T13:21:34.144Z,36.57
2019-03-31T13:24:05.389Z,28.13
2019-03-31T13:26:41.942Z,29.13
2019-03-31T13:29:09.169Z,30.77
2019-03-31T13:31:48.544Z,29.37
2019-03-31T13:34:16.334Z,32.13
2019-03-31T13:36:44.626Z,28.20
2019-03-31T13:39:17.613Z,25.53
2019-03-31T13:41:49.154Z,28.30
2019-03-31T13:44:16.616Z,25.87
2019-03-31T13:46:43.775Z,28.67
2019-03-31T13:49:17.994Z,28.20
2019-03-31T13:51:45.128Z,29.07
2019-03-31T13:54:13.439Z,28.10
2019-03-31T13:56:45.944Z,28.93
2019-03-31T13:59:11.962Z,25.83
2019-03-31T14:01:39.416Z,28.33
2019-03-31T14:04:07.210Z,26.70
2019-03-31T14:06:37.646Z,30.43
2019-03-31T14:09:07.983Z,28.03
2019-03-31T14:11:39.837Z,33.17
2019-03-31T14:14:09.695Z,28.00
2019-03-31T14:16:36.951Z,25.70
2019-03-31T14:19:07.493Z,29.83
2019-03-31T14:21:40.327Z,31.33
2019-03-31T14:24:10.518Z,25.93
2019-03-31T14:26:38.089Z,27.67
2019-03-31T14:29:05.229Z,33.67
2019-03-31T14:31:34.877Z,28.63
2019-03-31T14:34:02.509Z,25.80
2019-03-31T14:36:29.708Z,26.33
2019-03-31T14:38:56.910Z,27.27
2019-03-31T14:41:27.251Z,25.90
2019-03-31T14:43:54.641Z,27.70
2019-03-31T14:46:21.839Z,26.67
2019-03-31T14:48:52.304Z,27.43
2019-03-31T14:51:22.311Z,25.97
2019-03-31T14:53:53.286Z,25.97
2019-03-31T14:56:22.283Z,31.07
2019-03-31T14:58:49.516Z,27.07
2019-03-31T15:01:21.015Z,23.93
2019-03-31T15:03:54.200Z,24.57
2019-03-31T15:06:21.275Z,27.20
2019-03-31T15:08:54.630Z,26.27
2019-03-31T15:11:21.815Z,23.23
2019-03-31T15:13:47.651Z,23.50
2019-03-31T15:16:15.018Z,21.00
2019-03-31T15:18:42.198Z,23.70
2019-03-31T15:21:10.643Z,20.60
2019-03-31T15:23:37.914Z,21.90
2019-03-31T15:26:09.259Z,29.89
2019-03-31T15:28:36.710Z,27.80
2019-03-31T15:31:04.630Z,22.27
2019-03-31T15:33:31.772Z,17.83
2019-03-31T15:36:02.788Z,21.53
2019-03-31T15:38:30.251Z,24.83
2019-03-31T15:40:58.956Z,25.30
2019-03-31T15:43:26.037Z,24.40
2019-03-31T15:45:54.126Z,18.27
2019-03-31T15:48:23.778Z,19.37
2019-03-31T15:50:50.978Z,21.50
2019-03-31T15:53:23.257Z,20.13
2019-03-31T15:55:59.332Z,19.40
2019-03-31T15:58:26.768Z,21.10
2019-03-31T16:00:54.800Z,25.90
2019-03-31T16:03:21.939Z,20.57
2019-03-31T16:05:51.978Z,20.03
2019-03-31T16:08:19.179Z,18.17
2019-03-31T16:10:45.737Z,19.30
2019-03-31T16:13:18.302Z,19.37
2019-03-31T16:15:45.169Z,23.07
2019-03-31T16:18:11.894Z,18.80
2019-03-31T16:20:38.896Z,20.03
2019-03-31T16:23:05.504Z,18.63
2019-03-31T16:25:35.266Z,17.80
2019-03-31T16:28:09.192Z,22.27
2019-03-31T16:30:37.069Z,21.47
2019-03-31T16:33:14.963Z,21.90
2019-03-31T16:35:41.686Z,25.03
2019-03-31T16:38:10.811Z,20.93
2019-03-31T16:40:39.967Z,16.57
2019-03-31T16:43:09.345Z,20.90
2019-03-31T16:45:36.689Z,18.47
2019-03-31T16:48:08.893Z,18.20
2019-03-31T16:50:35.549Z,14.13
2019-03-31T16:53:02.549Z,17.83
2019-03-31T16:55:29.412Z,40.87
2019-03-31T16:58:02.723Z,19.67
2019-03-31T17:00:31.403Z,16.87
2019-03-31T17:02:59.752Z,14.03
2019-03-31T17:05:26.530Z,17.30
2019-03-31T17:07:54.333Z,19.73
2019-03-31T17:10:24.318Z,13.43
2019-03-31T17:12:51.101Z,12.63
2019-03-31T17:15:21.936Z,17.03
2019-03-31T17:17:49.780Z,13.23
2019-03-31T17:20:22.200Z,9.00
2019-03-31T17:22:53.243Z,8.10
2019-03-31T17:25:21.945Z,11.70
2019-03-31T17:27:51.142Z,10.77
2019-03-31T17:30:19.133Z,9.77
2019-03-31T17:32:48.051Z,9.47
2019-03-31T17:35:18.401Z,8.70
2019-03-31T17:37:46.447Z,9.23
2019-03-31T17:40:13.378Z,10.17
2019-03-31T17:42:40.426Z,7.77
2019-03-31T17:45:07.285Z,9.40
2019-03-31T17:47:33.913Z,9.43
2019-03-31T17:50:00.819Z,6.83
2019-03-31T17:52:27.377Z,8.70
2019-03-31T17:54:53.918Z,6.87
2019-03-31T17:57:20.602Z,7.17
2019-03-31T17:59:47.253Z,9.67
2019-03-31T18:02:18.799Z,9.13
2019-03-31T18:04:45.850Z,7.37
2019-03-31T18:07:12.573Z,7.13
2019-03-31T18:09:45.058Z,9.07
2019-03-31T18:12:11.739Z,6.80
2019-03-31T18:14:38.574Z,6.53
2019-03-31T18:17:05.232Z,5.90
2019-03-31T18:19:32.485Z,8.73
2019-03-31T18:22:17.218Z,6.83
2019-03-31T18:24:48.802Z,6.50
2019-03-31T18:27:18.722Z,8.00
2019-03-31T18:29:47.667Z,8.30
2019-03-31T18:32:14.552Z,7.40
2019-03-31T18:34:42.944Z,8.30
2019-03-31T18:37:11.088Z,9.80
2019-03-31T18:39:44.316Z,7.03
2019-03-31T18:42:11.104Z,7.20
2019-03-31T18:44:39.787Z,7.30
2019-03-31T18:47:10.241Z,5.90
2019-03-31T18:49:39.654Z,7.10
2019-03-31T18:52:06.178Z,6.20
2019-03-31T18:54:43.288Z,7.90
2019-03-31T18:57:29.915Z,8.50
2019-03-31T19:00:25.231Z,7.70
2019-03-31T19:03:10.656Z,10.23
2019-03-31T19:06:01.452Z,8.37
2019-03-31T19:08:53.004Z,6.60
2019-03-31T19:12:01.551Z,10.80
2019-03-31T19:14:38.461Z,6.57
2019-03-31T19:17:13.700Z,7.87
2019-03-31T19:20:08.181Z,9.27
2019-03-31T19:22:56.318Z,5.60
2019-03-31T19:25:40.055Z,7.93
2019-03-31T19:28:36.228Z,9.73
2019-03-31T19:31:19.756Z,6.00
2019-03-31T19:34:05.792Z,10.00
2019-03-31T19:36:52.060Z,7.63
2019-03-31T19:39:46.735Z,7.10
2019-03-31T19:42:32.244Z,7.07
2019-03-31T19:45:11.332Z,8.53
2019-03-31T19:47:44.897Z,8.20
2019-03-31T19:50:31.144Z,7.60
2019-03-31T19:53:37.397Z,8.13
2019-03-31T19:56:29.142Z,7.80
2019-03-31T19:59:17.402Z,8.17
2019-03-31T20:01:59.358Z,10.63
2019-03-31T20:04:51.719Z,7.30
2019-03-31T20:07:38.820Z,8.47
2019-03-31T20:10:29.150Z,7.43
2019-03-31T20:13:20.045Z,8.23
2019-03-31T20:15:57.162Z,9.57
2019-03-31T20:18:43.718Z,11.73
2019-03-31T20:21:39.049Z,9.37
2019-03-31T20:24:27.993Z,8.63
2019-03-31T20:27:19.063Z,10.77
2019-03-31T20:29:58.846Z,10.77
2019-03-31T20:32:37.938Z,15.17
2019-03-31T20:35:33.564Z,12.00
2019-03-31T20:38:08.394Z,11.77
2019-03-31T20:40:52.966Z,10.03
2019-03-31T20:43:35.681Z,10.97
2019-03-31T20:46:04.494Z,9.80
2019-03-31T20:48:31.439Z,11.78
2019-03-31T20:51:01.849Z,8.90
2019-03-31T20:53:29.680Z,9.40
2019-03-31T20:55:56.388Z,9.87
2019-03-31T20:58:23.954Z,8.47
2019-03-31T21:00:50.695Z,11.10
2019-03-31T21:03:17.466Z,10.53
2019-03-31T21:05:44.056Z,13.97
2019-03-31T21:08:10.850Z,8.10
2019-03-31T21:10:37.482Z,11.47
2019-03-31T21:13:04.056Z,10.33
2019-03-31T21:15:31.411Z,9.07
2019-03-31T21:17:57.953Z,11.60
2019-03-31T21:20:24.898Z,9.97
2019-03-31T21:22:51.443Z,11.03
2019-03-31T21:25:17.973Z,8.07
2019-03-31T21:27:44.596Z,9.90
2019-03-31T21:30:11.277Z,9.20
2019-03-31T21:32:37.816Z,9.03
2019-03-31T21:35:04.431Z,9.97
2019-03-31T21:37:31.259Z,8.33
2019-03-31T21:39:57.795Z,9.87
2019-03-31T21:42:24.313Z,12.10
2019-03-31T21:44:50.886Z,11.63
2019-03-31T21:47:17.453Z,8.77
2019-03-31T21:49:43.915Z,13.23
2019-03-31T21:52:10.396Z,11.93
2019-03-31T21:54:38.969Z,14.00
2019-03-31T21:57:05.495Z,10.47
2019-03-31T21:59:33.608Z,7.80
2019-03-31T22:02:01.759Z,9.93
2019-03-31T22:04:28.608Z,7.83
2019-03-31T22:06:57.652Z,8.50
2019-03-31T22:09:28.505Z,10.40
2019-03-31T22:11:52.602Z,16.07
2019-03-31T22:14:19.104Z,8.73
2019-03-31T22:16:47.942Z,9.90
2019-03-31T22:19:18.358Z,11.70
2019-03-31T22:21:45.438Z,9.77
2019-03-31T22:24:15.152Z,7.63
2019-03-31T22:26:41.662Z,9.87
2019-03-31T22:29:08.471Z,11.17
2019-03-31T22:31:35.035Z,10.13
2019-03-31T22:34:01.580Z,8.70
2019-03-31T22:36:28.059Z,10.47
2019-03-31T22:38:54.568Z,6.77
2019-03-31T22:41:21.139Z,11.20
2019-03-31T22:43:48.223Z,8.83
2019-03-31T22:46:14.730Z,8.10
2019-03-31T22:48:41.300Z,8.23
2019-03-31T22:51:07.815Z,14.17
2019-03-31T22:53:34.295Z,12.07
2019-03-31T22:56:05.125Z,9.47
2019-03-31T22:58:31.658Z,8.43
2019-03-31T23:00:58.347Z,8.23
2019-03-31T23:03:24.917Z,8.67
2019-03-31T23:05:51.459Z,9.63
2019-03-31T23:08:18.247Z,9.37
2019-03-31T23:10:45.063Z,6.47
2019-03-31T23:13:11.622Z,10.23
2019-03-31T23:15:38.394Z,9.70
2019-03-31T23:18:05.225Z,10.97
2019-03-31T23:20:32.925Z,12.73
2019-03-31T23:22:59.453Z,8.07
2019-03-31T23:25:28.201Z,8.13
2019-03-31T23:27:58.010Z,8.77
2019-03-31T23:30:27.684Z,9.40
2019-03-31T23:32:55.757Z,8.83
2019-03-31T23:35:22.223Z,8.10
2019-03-31T23:37:48.743Z,8.57
2019-03-31T23:40:17.508Z,9.27
2019-03-31T23:42:46.791Z,6.40
2019-03-31T23:45:13.317Z,6.47
2019-03-31T23:47:42.805Z,13.30
2019-03-31T23:50:09.461Z,8.57
2019-03-31T23:52:38.939Z,6.93
2019-03-31T23:55:08.548Z,7.13
2019-03-31T23:57:40.953Z,7.37
